createdAt,value
2019-02-14T00:02:05.986Z,-2.71
2019-02-14T00:04:34.520Z,-2.69
2019-02-14T00:07:02.993Z,-2.76
2019-02-14T00:09:31.620Z,-2.78
2019-02-14T00:12:00.129Z,-2.79
2019-02-14T00:14:28.743Z,-2.80
2019-02-14T00:16:57.367Z,-2.83
2019-02-14T00:19:25.884Z,-2.88
2019-02-14T00:21:54.489Z,-2.86
2019-02-14T00:24:23.186Z,-2.88
2019-02-14T00:26:52.094Z,-2.90
2019-02-14T00:29:20.646Z,-2.89
2019-02-14T00:31:49.201Z,-2.89
2019-02-14T00:34:17.851Z,-2.79
2019-02-14T00:36:46.472Z,-2.85
2019-02-14T00:39:15.030Z,-2.84
2019-02-14T00:41:43.573Z,-2.84
2019-02-14T00:44:12.201Z,-2.85
2019-02-14T00:46:40.831Z,-2.84
2019-02-14T00:49:09.354Z,-2.84
2019-02-14T00:51:38.018Z,-2.84
2019-02-14T00:54:06.500Z,-2.89
2019-02-14T00:56:35.032Z,-2.87
2019-02-14T00:59:03.650Z,-2.89
2019-02-14T01:01:32.264Z,-2.94
2019-02-14T01:04:00.878Z,-2.96
2019-02-14T01:06:29.430Z,-2.97
2019-02-14T01:08:58.042Z,-2.96
2019-02-14T01:11:26.705Z,-2.89
2019-02-14T01:13:55.190Z,-2.94
2019-02-14T01:16:23.674Z,-2.92
2019-02-14T01:18:52.331Z,-2.96
2019-02-14T01:21:21.001Z,-3.02
2019-02-14T01:23:49.491Z,-3.06
2019-02-14T01:26:18.023Z,-3.11
2019-02-14T01:31:29.474Z,-3.03
2019-02-14T01:33:58.113Z,-3.09
2019-02-14T01:36:26.730Z,-3.07
2019-02-14T01:38:55.342Z,-3.03
2019-02-14T01:41:23.821Z,-3.04
2019-02-14T01:43:52.459Z,-3.02
2019-02-14T01:46:21.137Z,-3.02
2019-02-14T01:48:49.616Z,-3.03
2019-02-14T01:51:18.219Z,-3.03
2019-02-14T01:53:46.872Z,-3.05
2019-02-14T01:56:45.661Z,-3.06
2019-02-14T01:59:14.276Z,-3.03
2019-02-14T02:01:42.827Z,-3.06
2019-02-14T02:04:11.455Z,-3.10
2019-02-14T02:06:40.214Z,-3.15
2019-02-14T02:09:08.872Z,-3.13
2019-02-14T02:11:37.511Z,-3.13
2019-02-14T02:14:06.380Z,-3.16
2019-02-14T02:16:35.002Z,-3.13
2019-02-14T02:19:03.699Z,-3.11
2019-02-14T02:21:32.366Z,-3.11
2019-02-14T02:24:00.870Z,-3.11
2019-02-14T02:26:29.423Z,-3.19
2019-02-14T02:28:58.267Z,-3.20
2019-02-14T02:31:26.888Z,-3.11
2019-02-14T02:33:55.441Z,-3.15
2019-02-14T02:36:23.967Z,-3.08
2019-02-14T02:38:52.595Z,-3.10
2019-02-14T02:41:21.241Z,-3.12
2019-02-14T02:43:49.745Z,-3.09
2019-02-14T02:46:18.246Z,-3.11
2019-02-14T02:48:46.880Z,-3.12
2019-02-14T02:51:15.483Z,-3.17
2019-02-14T02:53:44.105Z,-3.16
2019-02-14T02:56:12.949Z,-3.17
2019-02-14T02:58:41.652Z,-3.21
2019-02-14T03:01:10.210Z,-3.22
2019-02-14T03:03:38.843Z,-3.27
2019-02-14T03:06:10.702Z,-3.25
2019-02-14T03:08:37.754Z,-3.27
2019-02-14T03:11:06.315Z,-3.32
2019-02-14T03:13:34.992Z,-3.32
2019-02-14T03:16:03.688Z,-3.32
2019-02-14T03:18:32.192Z,-3.33
2019-02-14T03:21:00.701Z,-3.39
2019-02-14T03:23:29.325Z,-3.32
2019-02-14T03:25:57.950Z,-3.36
2019-02-14T03:28:26.552Z,-3.39
2019-02-14T03:30:55.186Z,-3.36
2019-02-14T03:33:23.679Z,-3.43
2019-02-14T03:35:52.218Z,-3.40
2019-02-14T03:38:20.848Z,-3.36
2019-02-14T03:40:49.478Z,-3.40
2019-02-14T03:43:18.012Z,-3.35
2019-02-14T03:45:46.506Z,-3.36
2019-02-14T03:48:15.138Z,-3.34
2019-02-14T03:50:43.792Z,-3.31
2019-02-14T03:53:12.362Z,-3.37
2019-02-14T03:55:40.846Z,-3.28
2019-02-14T03:58:09.517Z,-3.28
2019-02-14T04:00:38.129Z,-3.31
2019-02-14T04:03:06.678Z,-3.27
2019-02-14T04:05:35.220Z,-3.24
2019-02-14T04:08:03.835Z,-3.30
2019-02-14T04:10:32.460Z,-3.29
2019-02-14T04:13:00.980Z,-3.27
2019-02-14T04:15:29.481Z,-3.27
2019-02-14T04:17:58.113Z,-3.26
2019-02-14T04:20:26.801Z,-3.25
2019-02-14T04:22:55.290Z,-3.31
2019-02-14T04:25:23.771Z,-3.28
2019-02-14T04:27:52.478Z,-3.27
2019-02-14T04:30:21.096Z,-3.28
2019-02-14T04:32:49.585Z,-3.28
2019-02-14T04:35:18.232Z,-3.26
2019-02-14T04:37:46.969Z,-3.31
2019-02-14T04:40:15.610Z,-3.27
2019-02-14T04:42:44.154Z,-3.26
2019-02-14T04:45:13.530Z,-3.27
2019-02-14T04:47:42.563Z,-3.24
2019-02-14T04:50:11.898Z,-3.23
2019-02-14T04:52:40.539Z,-3.26
2019-02-14T04:55:10.763Z,-3.29
2019-02-14T04:57:39.393Z,-3.27
2019-02-14T05:00:15.921Z,-3.23
2019-02-14T05:02:44.637Z,-3.26
2019-02-14T05:05:13.374Z,-3.24
2019-02-14T05:07:42.100Z,-3.30
2019-02-14T05:10:11.841Z,-3.29
2019-02-14T05:12:40.487Z,-3.29
2019-02-14T05:15:10.699Z,-3.33
2019-02-14T05:17:39.330Z,-3.36
2019-02-14T05:20:12.663Z,-3.26
2019-02-14T05:22:41.499Z,-3.31
2019-02-14T05:25:10.434Z,-3.31
2019-02-14T05:27:44.920Z,-3.31
2019-02-14T05:30:18.505Z,-3.32
2019-02-14T05:32:47.003Z,-3.22
2019-02-14T05:35:15.560Z,-3.14
2019-02-14T05:37:44.226Z,-3.08
2019-02-14T05:40:12.956Z,-3.04
2019-02-14T05:42:41.439Z,-2.98
2019-02-14T05:45:12.224Z,-2.83
2019-02-14T05:47:40.846Z,-2.61
2019-02-14T05:50:14.464Z,-2.42
2019-02-14T05:52:43.078Z,-2.22
2019-02-14T05:55:12.614Z,-2.05
2019-02-14T05:57:41.279Z,-1.72
2019-02-14T06:00:15.227Z,-0.94
2019-02-14T06:02:43.721Z,-0.94
2019-02-14T06:05:12.365Z,-0.30
2019-02-14T06:07:41.036Z,0.26
2019-02-14T06:10:11.064Z,0.65
2019-02-14T06:12:39.696Z,0.95
2019-02-14T06:15:10.467Z,1.15
2019-02-14T06:17:39.091Z,1.48
2019-02-14T06:20:12.136Z,2.03
2019-02-14T06:22:40.798Z,2.05
2019-02-14T06:25:10.940Z,2.60
2019-02-14T06:27:39.482Z,3.10
2019-02-14T06:30:13.938Z,3.40
2019-02-14T06:32:42.568Z,3.64
2019-02-14T06:35:11.992Z,3.81
2019-02-14T06:37:40.591Z,4.37
2019-02-14T06:40:13.732Z,4.56
2019-02-14T06:42:42.477Z,4.79
2019-02-14T06:45:16.488Z,5.00
2019-02-14T06:47:45.122Z,4.79
2019-02-14T06:50:13.749Z,5.20
2019-02-14T06:52:42.279Z,5.80
2019-02-14T06:55:11.010Z,6.02
2019-02-14T06:57:39.634Z,5.82
2019-02-14T07:00:11.210Z,5.61
2019-02-14T07:02:39.762Z,5.60
2019-02-14T07:05:09.789Z,4.91
2019-02-14T07:07:38.473Z,4.81
2019-02-14T07:10:09.200Z,4.85
2019-02-14T07:12:37.701Z,5.07
2019-02-14T07:15:12.334Z,4.64
2019-02-14T07:17:41.085Z,4.99
2019-02-14T07:20:12.351Z,4.37
2019-02-14T07:22:40.888Z,4.28
2019-02-14T07:25:11.389Z,4.25
2019-02-14T07:27:40.026Z,4.16
2019-02-14T07:30:22.363Z,4.52
2019-02-14T07:32:50.981Z,4.77
2019-02-14T07:35:19.709Z,4.32
2019-02-14T07:37:48.386Z,4.57
2019-02-14T07:40:16.997Z,4.87
2019-02-14T07:42:45.674Z,4.54
2019-02-14T07:45:18.339Z,4.61
2019-02-14T07:47:46.886Z,5.22
2019-02-14T07:50:18.163Z,5.41
2019-02-14T07:52:46.848Z,4.82
2019-02-14T07:55:15.613Z,4.87
2019-02-14T07:57:44.371Z,5.09
2019-02-14T08:00:15.950Z,5.13
2019-02-14T08:02:44.587Z,4.89
2019-02-14T08:05:13.222Z,5.04
2019-02-14T08:07:41.813Z,4.91
2019-02-14T08:10:15.525Z,4.95
2019-02-14T08:12:44.077Z,5.17
2019-02-14T08:15:14.044Z,5.30
2019-02-14T08:17:42.679Z,5.49
2019-02-14T08:20:13.415Z,5.15
2019-02-14T08:22:42.249Z,4.88
2019-02-14T08:25:12.681Z,4.78
2019-02-14T08:27:41.312Z,4.96
2019-02-14T08:30:17.052Z,5.10
2019-02-14T08:32:45.539Z,4.80
2019-02-14T08:35:14.105Z,4.33
2019-02-14T08:37:45.433Z,4.17
2019-02-14T08:40:21.981Z,4.18
2019-02-14T08:42:50.689Z,4.00
2019-02-14T08:45:19.173Z,3.77
2019-02-14T08:47:47.802Z,3.53
2019-02-14T08:50:16.340Z,3.66
2019-02-14T08:52:44.955Z,3.51
2019-02-14T08:55:13.583Z,3.61
2019-02-14T08:57:42.188Z,3.60
2019-02-14T09:00:15.288Z,3.44
2019-02-14T09:02:43.902Z,3.47
2019-02-14T09:05:12.738Z,3.52
2019-02-14T09:07:41.414Z,3.60
2019-02-14T09:10:14.873Z,3.39
2019-02-14T09:12:43.543Z,3.45
2019-02-14T09:15:13.469Z,3.36
2019-02-14T09:17:42.114Z,3.25
2019-02-14T09:20:18.376Z,3.44
2019-02-14T09:22:47.010Z,3.63
2019-02-14T09:25:15.627Z,3.32
2019-02-14T09:27:44.165Z,3.58
2019-02-14T09:30:14.091Z,3.71
2019-02-14T09:32:42.761Z,3.68
2019-02-14T09:35:11.427Z,3.65
2019-02-14T09:37:39.916Z,3.58
2019-02-14T09:40:16.928Z,3.68
2019-02-14T09:42:45.565Z,3.82
2019-02-14T09:45:14.786Z,3.85
2019-02-14T09:47:43.327Z,3.84
2019-02-14T09:50:13.459Z,3.80
2019-02-14T09:52:42.385Z,3.91
2019-02-14T09:55:14.497Z,4.03
2019-02-14T09:57:43.030Z,4.29
2019-02-14T10:00:16.309Z,4.24
2019-02-14T10:02:45.009Z,4.15
2019-02-14T10:05:14.596Z,4.32
2019-02-14T10:07:43.149Z,4.28
2019-02-14T10:10:17.372Z,4.16
2019-02-14T10:12:53.702Z,4.13
2019-02-14T10:15:22.289Z,4.31
2019-02-14T10:17:50.903Z,4.37
2019-02-14T10:20:19.615Z,4.30
2019-02-14T10:22:48.104Z,4.39
2019-02-14T10:25:16.957Z,4.55
2019-02-14T10:27:45.574Z,4.71
2019-02-14T10:30:18.733Z,4.75
2019-02-14T10:32:47.325Z,4.88
2019-02-14T10:35:15.820Z,4.82
2019-02-14T10:37:44.529Z,4.90
2019-02-14T10:40:15.000Z,4.72
2019-02-14T10:42:43.547Z,4.83
2019-02-14T10:45:14.266Z,5.00
2019-02-14T10:47:42.922Z,4.88
2019-02-14T10:50:11.847Z,4.89
2019-02-14T10:52:40.480Z,4.99
2019-02-14T10:55:11.214Z,5.02
2019-02-14T10:57:39.768Z,5.07
2019-02-14T11:00:17.890Z,5.06
2019-02-14T11:02:47.093Z,5.14
2019-02-14T11:05:16.614Z,5.19
2019-02-14T11:07:45.309Z,5.00
2019-02-14T11:10:15.153Z,5.22
2019-02-14T11:12:43.769Z,5.26
2019-02-14T11:15:17.707Z,5.23
2019-02-14T11:17:46.262Z,5.42
2019-02-14T11:20:15.277Z,5.50
2019-02-14T11:22:44.184Z,5.53
2019-02-14T11:25:33.879Z,5.64
2019-02-14T11:28:02.484Z,5.73
2019-02-14T11:30:31.186Z,5.69
2019-02-14T11:32:59.739Z,5.84
2019-02-14T11:35:28.341Z,5.91
2019-02-14T11:37:57.013Z,6.20
2019-02-14T11:40:25.658Z,6.44
2019-02-14T11:42:54.161Z,6.39
2019-02-14T11:45:24.190Z,6.20
2019-02-14T11:47:52.829Z,6.05
2019-02-14T11:50:21.522Z,5.76
2019-02-14T11:52:50.010Z,5.68
2019-02-14T11:55:18.499Z,5.46
2019-02-14T11:57:47.127Z,5.54
2019-02-14T12:00:24.663Z,5.69
2019-02-14T12:02:55.876Z,5.78
2019-02-14T12:05:29.455Z,5.88
2019-02-14T12:07:58.107Z,5.61
2019-02-14T12:10:26.594Z,5.62
2019-02-14T12:12:55.212Z,5.40
2019-02-14T12:15:23.862Z,5.28
2019-02-14T12:17:52.360Z,5.49
2019-02-14T12:20:20.834Z,5.52
2019-02-14T12:22:49.527Z,5.40
2019-02-14T12:25:23.796Z,5.44
2019-02-14T12:27:52.352Z,5.43
2019-02-14T12:30:21.016Z,5.36
2019-02-14T12:32:49.633Z,5.39
2019-02-14T12:35:18.252Z,5.38
2019-02-14T12:37:46.788Z,5.40
2019-02-14T12:40:15.481Z,5.25
2019-02-14T12:42:44.099Z,5.19
2019-02-14T12:47:45.837Z,4.99
2019-02-14T12:50:14.447Z,4.78
2019-02-14T12:52:43.072Z,4.73
2019-02-14T12:55:11.710Z,4.89
2019-02-14T12:57:40.339Z,4.84
2019-02-14T13:00:17.711Z,4.77
2019-02-14T13:02:46.266Z,4.69
2019-02-14T13:05:14.811Z,4.72
2019-02-14T13:07:43.744Z,4.65
2019-02-14T13:10:14.581Z,4.78
2019-02-14T13:12:43.133Z,4.72
2019-02-14T13:15:17.541Z,4.58
2019-02-14T13:17:46.163Z,4.44
2019-02-14T13:20:14.793Z,4.33
2019-02-14T13:22:43.328Z,4.15
2019-02-14T13:25:12.739Z,4.18
2019-02-14T13:27:41.355Z,4.16
2019-02-14T13:30:15.763Z,4.02
2019-02-14T13:32:44.371Z,4.08
2019-02-14T13:35:13.304Z,4.15
2019-02-14T13:37:42.083Z,4.19
2019-02-14T13:40:10.712Z,4.33
2019-02-14T13:42:39.332Z,4.28
2019-02-14T13:45:14.333Z,4.31
2019-02-14T13:47:42.859Z,4.15
2019-02-14T13:50:12.791Z,4.22
2019-02-14T13:52:41.447Z,4.09
2019-02-14T13:55:11.175Z,4.13
2019-02-14T13:57:40.108Z,4.18
2019-02-14T14:00:14.799Z,4.00
2019-02-14T14:02:43.421Z,4.05
2019-02-14T14:05:12.043Z,3.98
2019-02-14T14:07:40.827Z,3.83
2019-02-14T14:10:10.200Z,3.88
2019-02-14T14:12:38.754Z,3.81
2019-02-14T14:15:09.416Z,3.70
2019-02-14T14:17:38.034Z,3.62
2019-02-14T14:20:08.491Z,3.68
2019-02-14T14:22:36.987Z,3.60
2019-02-14T14:25:07.425Z,3.41
2019-02-14T14:27:36.069Z,3.47
2019-02-14T14:30:07.741Z,3.38
2019-02-14T14:32:36.224Z,3.24
2019-02-14T14:35:06.354Z,3.35
2019-02-14T14:37:35.021Z,3.33
2019-02-14T14:40:04.759Z,3.28
2019-02-14T14:42:34.948Z,3.39
2019-02-14T14:45:05.526Z,3.28
2019-02-14T14:47:34.146Z,3.28
2019-02-14T14:50:02.781Z,3.31
2019-02-14T14:52:31.571Z,3.22
2019-02-14T14:55:00.037Z,3.20
2019-02-14T14:57:28.776Z,3.09
2019-02-14T14:59:57.450Z,3.15
2019-02-14T15:02:26.000Z,2.97
2019-02-14T15:04:54.484Z,2.99
2019-02-14T15:07:23.167Z,3.01
2019-02-14T15:09:57.493Z,2.92
2019-02-14T15:12:22.016Z,2.96
2019-02-14T15:14:50.625Z,2.88
2019-02-14T15:17:19.287Z,2.85
2019-02-14T15:19:47.918Z,2.80
2019-02-14T15:22:16.443Z,2.72
2019-02-14T15:24:45.041Z,2.77
2019-02-14T15:27:13.674Z,2.75
2019-02-14T15:29:42.180Z,2.67
2019-02-14T15:32:10.840Z,2.67
2019-02-14T15:34:39.460Z,2.68
2019-02-14T15:37:07.960Z,2.59
2019-02-14T15:39:36.493Z,2.64
2019-02-14T15:42:05.129Z,2.58
2019-02-14T15:44:33.774Z,2.62
2019-02-14T15:47:02.320Z,2.56
2019-02-14T15:49:30.870Z,2.52
2019-02-14T15:51:59.495Z,2.53
2019-02-14T15:54:28.172Z,2.50
2019-02-14T15:56:59.393Z,2.47
2019-02-14T15:59:28.898Z,2.42
2019-02-14T16:01:57.645Z,2.39
2019-02-14T16:04:27.099Z,2.36
2019-02-14T16:06:56.486Z,2.41
2019-02-14T16:09:25.132Z,2.43
2019-02-14T16:11:55.360Z,2.52
2019-02-14T16:14:23.959Z,2.38
2019-02-14T16:16:52.588Z,2.30
2019-02-14T16:19:21.211Z,2.34
2019-02-14T16:21:51.523Z,2.33
2019-02-14T16:24:20.180Z,2.37
2019-02-14T16:26:48.797Z,2.37
2019-02-14T16:29:17.460Z,2.38
2019-02-14T16:31:46.120Z,2.35
2019-02-14T16:34:14.641Z,2.28
2019-02-14T16:36:43.346Z,2.29
2019-02-14T16:39:12.050Z,2.31
2019-02-14T16:41:40.544Z,2.26
2019-02-14T16:44:09.062Z,2.25
2019-02-14T16:46:37.686Z,2.15
2019-02-14T16:49:06.178Z,2.10
2019-02-14T16:51:34.880Z,2.09
2019-02-14T16:54:03.500Z,1.97
2019-02-14T16:56:31.990Z,2.04
2019-02-14T16:59:00.532Z,1.98
2019-02-14T17:01:29.186Z,1.97
2019-02-14T17:03:57.821Z,1.96
2019-02-14T17:06:26.416Z,1.97
2019-02-14T17:08:54.985Z,1.90
2019-02-14T17:11:23.612Z,1.93
2019-02-14T17:13:52.443Z,1.93
2019-02-14T17:16:20.989Z,1.96
2019-02-14T17:18:49.496Z,1.93
2019-02-14T17:21:18.137Z,1.88
2019-02-14T17:23:46.754Z,1.87
2019-02-14T17:26:15.241Z,1.84
2019-02-14T17:28:43.917Z,1.79
2019-02-14T17:31:12.422Z,1.82
2019-02-14T17:33:40.911Z,1.75
2019-02-14T17:36:09.595Z,1.72
2019-02-14T17:38:38.206Z,1.79
2019-02-14T17:41:06.789Z,1.77
2019-02-14T17:43:35.547Z,1.76
2019-02-14T17:46:04.179Z,1.76
2019-02-14T17:48:32.809Z,1.76
2019-02-14T17:51:01.338Z,1.76
2019-02-14T17:53:29.834Z,1.75
2019-02-14T17:55:58.460Z,1.73
2019-02-14T17:58:27.129Z,1.68
2019-02-14T18:00:55.696Z,1.71
2019-02-14T18:03:24.209Z,1.71
2019-02-14T18:05:52.867Z,1.73
2019-02-14T18:08:21.348Z,1.75
2019-02-14T18:10:54.874Z,1.71
2019-02-14T18:13:20.373Z,1.70
2019-02-14T18:15:48.867Z,1.75
2019-02-14T18:18:17.367Z,1.76
2019-02-14T18:20:46.030Z,1.73
2019-02-14T18:23:14.661Z,1.74
2019-02-14T18:25:43.173Z,1.66
2019-02-14T18:28:11.848Z,1.65
2019-02-14T18:30:40.490Z,1.70
2019-02-14T18:33:09.113Z,1.86
2019-02-14T18:35:37.645Z,1.77
2019-02-14T18:38:06.198Z,1.69
2019-02-14T18:40:34.822Z,1.76
2019-02-14T18:43:03.485Z,1.74
2019-02-14T18:45:32.207Z,1.76
2019-02-14T18:48:00.834Z,1.80
2019-02-14T18:50:29.504Z,1.91
2019-02-14T18:52:58.075Z,1.79
2019-02-14T18:55:26.701Z,1.92
2019-02-14T18:57:55.591Z,1.92
2019-02-14T19:00:24.075Z,1.86
2019-02-14T19:02:52.630Z,1.82
2019-02-14T19:05:21.294Z,1.84
2019-02-14T19:07:49.919Z,1.83
2019-02-14T19:10:18.500Z,1.76
2019-02-14T19:12:47.083Z,1.77
2019-02-14T19:15:15.700Z,1.82
2019-02-14T19:17:44.320Z,1.77
2019-02-14T19:20:13.954Z,1.75
2019-02-14T19:22:42.764Z,1.78
2019-02-14T19:25:11.617Z,1.77
2019-02-14T19:27:40.217Z,1.69
2019-02-14T19:30:10.941Z,1.68
2019-02-14T19:32:39.651Z,1.72
2019-02-14T19:35:09.434Z,1.74
2019-02-14T19:37:37.986Z,1.81
2019-02-14T19:40:08.331Z,1.75
2019-02-14T19:42:36.962Z,1.74
2019-02-14T19:45:10.146Z,1.83
2019-02-14T19:47:38.649Z,1.79
2019-02-14T19:50:09.839Z,1.80
2019-02-14T19:52:38.467Z,1.76
2019-02-14T19:55:11.142Z,1.73
2019-02-14T19:57:42.578Z,1.77
2019-02-14T20:00:17.561Z,1.85
2019-02-14T20:02:46.193Z,1.70
2019-02-14T20:05:14.751Z,1.70
2019-02-14T20:07:43.354Z,1.60
2019-02-14T20:10:15.910Z,1.62
2019-02-14T20:12:44.534Z,1.68
2019-02-14T20:15:18.776Z,1.56
2019-02-14T20:17:47.347Z,1.58
2019-02-14T20:20:15.958Z,1.54
2019-02-14T20:22:44.900Z,1.63
2019-02-14T20:25:27.978Z,1.66
2019-02-14T20:27:56.756Z,1.62
2019-02-14T20:30:25.386Z,1.67
2019-02-14T20:33:03.930Z,1.77
2019-02-14T20:35:24.410Z,1.72
2019-02-14T20:37:52.964Z,1.82
2019-02-14T20:40:21.608Z,1.83
2019-02-14T20:42:50.284Z,1.80
2019-02-14T20:45:18.841Z,1.88
2019-02-14T20:47:48.486Z,1.96
2019-02-14T20:50:16.983Z,1.93
2019-02-14T20:52:45.567Z,1.94
2019-02-14T20:55:20.241Z,1.91
2019-02-14T20:57:48.892Z,1.87
2019-02-14T21:00:21.832Z,1.93
2019-02-14T21:02:50.380Z,1.92
2019-02-14T21:05:19.072Z,1.86
2019-02-14T21:07:47.703Z,1.93
2019-02-14T21:10:16.274Z,2.04
2019-02-14T21:12:44.789Z,2.04
2019-02-14T21:15:13.426Z,2.03
2019-02-14T21:17:42.059Z,2.01
2019-02-14T21:20:12.547Z,2.00
2019-02-14T21:22:41.095Z,1.90
2019-02-14T21:25:09.999Z,1.91
2019-02-14T21:27:38.562Z,1.96
2019-02-14T21:30:14.668Z,1.93
2019-02-14T21:32:43.319Z,1.89
2019-02-14T21:35:11.877Z,1.92
2019-02-14T21:37:40.361Z,1.85
2019-02-14T21:40:14.216Z,1.85
2019-02-14T21:42:42.840Z,1.79
2019-02-14T21:45:13.291Z,1.84
2019-02-14T21:47:41.994Z,1.81
2019-02-14T21:50:14.974Z,1.85
2019-02-14T21:52:43.713Z,1.86
2019-02-14T21:55:13.417Z,1.78
2019-02-14T21:57:42.037Z,1.78
2019-02-14T22:00:19.551Z,1.77
2019-02-14T22:02:48.856Z,1.82
2019-02-14T22:05:24.015Z,1.79
2019-02-14T22:07:48.100Z,1.67
2019-02-14T22:10:16.644Z,1.68
2019-02-14T22:12:45.210Z,1.66
2019-02-14T22:15:20.040Z,1.64
2019-02-14T22:17:48.674Z,1.75
2019-02-14T22:20:17.285Z,1.73
2019-02-14T22:22:45.948Z,1.70
2019-02-14T22:25:14.582Z,1.71
2019-02-14T22:27:43.211Z,1.65
2019-02-14T22:30:18.718Z,1.56
2019-02-14T22:32:47.354Z,1.64
2019-02-14T22:35:15.977Z,1.59
2019-02-14T22:37:44.652Z,1.57
2019-02-14T22:40:14.874Z,1.59
2019-02-14T22:42:47.553Z,1.66
2019-02-14T22:45:15.427Z,1.67
2019-02-14T22:47:45.263Z,1.72
2019-02-14T22:50:14.189Z,1.71
2019-02-14T22:52:50.883Z,1.67
2019-02-14T22:55:19.520Z,1.66
2019-02-14T22:57:48.392Z,1.69
2019-02-14T23:00:24.520Z,1.78
2019-02-14T23:02:53.229Z,1.71
2019-02-14T23:05:21.865Z,1.72
2019-02-14T23:07:50.507Z,1.74
2019-02-14T23:10:19.049Z,1.68
2019-02-14T23:12:55.481Z,1.70
2019-02-14T23:15:18.380Z,1.71
2019-02-14T23:17:47.053Z,1.64
2019-02-14T23:20:15.608Z,1.73
2019-02-14T23:22:44.206Z,1.75
2019-02-14T23:25:14.501Z,1.80
2019-02-14T23:27:42.988Z,1.84
2019-02-14T23:30:14.103Z,1.92
2019-02-14T23:32:42.784Z,1.84
2019-02-14T23:35:11.362Z,1.81
2019-02-14T23:37:40.012Z,1.81
2019-02-14T23:40:08.973Z,1.85
2019-02-14T23:42:37.614Z,1.84
2019-02-14T23:45:08.950Z,1.87
2019-02-14T23:47:37.472Z,1.78
2019-02-14T23:50:08.236Z,1.91
2019-02-14T23:52:36.860Z,1.83
2019-02-14T23:55:07.221Z,1.95
2019-02-14T23:57:35.786Z,1.99
